Terminal Aerodrome Forecast
Issued by NWS

Home | Current Version | Previous Version | Text Only | Print | Product List | Glossary On
Versions: 1 2 3 4 5 6 7 8 9 10 11 12 13 14 15 16 17 18 19 20 21 22 23 24
000
FTUS46 KSGX 072023 AAA
TAFSAN
TAF AMD
KSAN 072023Z 0720/0824 VRB06KT P6SM OVC018
     FM072100 27009KT P6SM SCT018 BKN022
      TEMPO 0722/0724 SCT022
     FM080300 25006KT P6SM OVC016
     FM081800 26011KT P6SM BKN018
     FM082200 26011KT P6SM BKN022=

USA.gov is the U.S. government's official web portal to all federal, state and local government web resources and services.